Terminal Aerodrome Forecast
Issued by NWS

Home | Current Version | Previous Version | Text Only | Print | Product List | Glossary On
Versions: 1 2 3 4 5 6 7 8 9 10 11 12 13
696
FTAK31 PAJN 302339
TAFAKT
TAF
PAKT 302339Z 3100/3124 15008KT P6SM BKN035 OVC050
     FM311300 14010KT P6SM -RA SCT020 OVC040
     FM311800 14012KT P6SM -RA SCT020 OVC035 WS020/14030KT
      AMD LTD TO CLD VIS AND WIND 3106/3115=

USA.gov is the U.S. government's official web portal to all federal, state and local government web resources and services.